Terminal Aerodrome Forecast
Issued by NWS Upton, NY

Home | Current Version | Previous Version | Text Only | Print | Product List | Glossary On
Versions: 1 2 3 4 5 6 7 8 9 10 11 12 13 14 15 16 17 18 19 20 21 22 23 24 25 26 27
000
FTUS41 KOKX 041742
TAFEWR
TAF
KEWR 041742Z 0418/0524 19012G20KT P6SM SCT100
     FM042000 20014G22KT P6SM SCT100
     FM050000 21012KT P6SM FEW100
     FM050700 23007KT P6SM FEW070 SCT250
     FM051300 25009KT P6SM SCT070 SCT150
     FM051500 29006KT P6SM VCSH SCT045 SCT100 PROB30 0515/0518 4SM
      -SHRA BKN045
     FM051800 30007KT P6SM VCSH SCT045 SCT100 PROB30 0518/0524 4SM
      -SHRA BKN045=

USA.gov is the U.S. government's official web portal to all federal, state and local government web resources and services.